createdAt,value
2018-10-02T00:00:43.724Z,1.97
2018-10-02T00:03:11.571Z,2.70
2018-10-02T00:05:39.438Z,2.50
2018-10-02T00:08:07.263Z,2.37
2018-10-02T00:10:35.057Z,2.10
2018-10-02T00:13:08.359Z,1.93
2018-10-02T00:15:36.167Z,2.47
2018-10-02T00:18:04.005Z,2.20
2018-10-02T00:20:32.188Z,3.77
2018-10-02T00:23:01.028Z,2.00
2018-10-02T00:25:28.823Z,2.80
2018-10-02T00:27:56.667Z,2.20
2018-10-02T00:30:24.492Z,2.33
2018-10-02T00:32:52.288Z,3.10
2018-10-02T00:35:20.092Z,2.67
2018-10-02T00:37:47.897Z,2.33
2018-10-02T00:40:15.759Z,2.23
2018-10-02T00:43:10.923Z,2.03
2018-10-02T00:45:38.960Z,1.77
2018-10-02T00:48:06.908Z,2.90
2018-10-02T00:50:35.977Z,3.07
2018-10-02T00:53:04.050Z,2.10
2018-10-02T00:55:32.034Z,2.60
2018-10-02T00:57:59.956Z,2.50
2018-10-02T01:00:28.013Z,2.37
2018-10-02T01:02:56.080Z,2.67
2018-10-02T01:05:24.138Z,1.97
2018-10-02T01:07:52.104Z,1.70
2018-10-02T01:10:20.084Z,1.87
2018-10-02T01:12:48.083Z,1.87
2018-10-02T01:15:16.079Z,1.60
2018-10-02T01:17:44.053Z,1.63
2018-10-02T01:20:12.101Z,1.97
2018-10-02T01:22:40.054Z,2.03
2018-10-02T01:25:08.236Z,1.50
2018-10-02T01:27:36.209Z,1.43
2018-10-02T01:30:04.423Z,1.70
2018-10-02T01:32:32.412Z,1.30
2018-10-02T01:35:00.444Z,1.63
2018-10-02T01:37:28.434Z,2.40
2018-10-02T01:39:56.461Z,1.40
2018-10-02T01:42:24.445Z,2.13
2018-10-02T01:44:52.292Z,1.30
2018-10-02T01:47:20.232Z,1.37
2018-10-02T01:49:48.091Z,1.57
2018-10-02T01:52:15.916Z,1.20
2018-10-02T01:54:43.723Z,2.00
2018-10-02T01:57:11.608Z,1.63
2018-10-02T01:59:39.420Z,1.20
2018-10-02T02:02:07.387Z,1.80
2018-10-02T02:04:35.227Z,1.50
2018-10-02T02:07:03.056Z,1.70
2018-10-02T02:09:30.952Z,1.67
2018-10-02T02:11:58.794Z,1.10
2018-10-02T02:14:27.681Z,1.57
2018-10-02T02:16:55.551Z,1.83
2018-10-02T02:19:23.410Z,1.73
2018-10-02T02:21:51.276Z,1.50
2018-10-02T02:24:19.139Z,1.50
2018-10-02T02:26:46.981Z,2.03
2018-10-02T02:29:14.843Z,2.67
2018-10-02T02:31:42.708Z,1.43
2018-10-02T02:34:10.514Z,1.43
2018-10-02T02:36:38.326Z,0.87
2018-10-02T02:39:06.870Z,1.70
2018-10-02T02:41:34.721Z,1.47
2018-10-02T02:44:02.625Z,1.70
2018-10-02T02:46:30.426Z,1.40
2018-10-02T02:49:03.824Z,1.60
2018-10-02T02:51:33.306Z,1.57
2018-10-02T02:54:01.161Z,2.20
2018-10-02T02:56:29.676Z,1.87
2018-10-02T02:58:58.612Z,1.53
2018-10-02T03:01:26.870Z,1.67
2018-10-02T03:03:54.754Z,1.97
2018-10-02T03:06:22.569Z,1.10
2018-10-02T03:08:50.393Z,1.97
2018-10-02T03:11:18.228Z,1.80
2018-10-02T03:13:46.099Z,1.77
2018-10-02T03:16:13.987Z,1.00
2018-10-02T03:18:41.839Z,1.27
2018-10-02T03:21:09.686Z,1.47
2018-10-02T03:23:37.472Z,1.67
2018-10-02T03:26:05.319Z,1.63
2018-10-02T03:28:33.143Z,1.03
2018-10-02T03:31:00.972Z,1.07
2018-10-02T03:33:28.856Z,0.80
2018-10-02T03:35:56.708Z,1.00
2018-10-02T03:38:24.512Z,1.37
2018-10-02T03:40:52.333Z,1.07
2018-10-02T03:43:20.147Z,1.53
2018-10-02T03:45:47.986Z,1.13
2018-10-02T03:48:15.804Z,1.53
2018-10-02T03:50:43.599Z,0.87
2018-10-02T03:53:11.457Z,0.70
2018-10-02T03:55:39.267Z,0.90
2018-10-02T03:58:07.106Z,0.70
2018-10-02T04:00:34.957Z,0.70
2018-10-02T04:03:02.805Z,1.23
2018-10-02T04:05:30.647Z,0.60
2018-10-02T04:07:58.514Z,0.70
2018-10-02T04:10:26.355Z,0.70
2018-10-02T04:12:54.196Z,1.33
2018-10-02T04:15:22.024Z,1.13
2018-10-02T04:17:49.851Z,0.80
2018-10-02T04:20:17.802Z,0.80
2018-10-02T04:22:45.602Z,0.80
2018-10-02T04:25:13.430Z,0.50
2018-10-02T04:27:41.261Z,1.07
2018-10-02T04:30:09.129Z,0.90
2018-10-02T04:32:36.960Z,0.70
2018-10-02T04:35:04.860Z,0.80
2018-10-02T04:37:32.765Z,1.07
2018-10-02T04:40:00.611Z,0.80
2018-10-02T04:42:28.474Z,0.80
2018-10-02T04:44:56.327Z,0.70
2018-10-02T04:47:25.163Z,1.07
2018-10-02T04:49:52.993Z,0.80
2018-10-02T04:52:20.819Z,1.03
2018-10-02T04:54:48.620Z,1.63
2018-10-02T04:57:16.449Z,1.00
2018-10-02T04:59:44.304Z,1.40
2018-10-02T05:02:12.189Z,0.90
2018-10-02T05:04:39.984Z,1.20
2018-10-02T05:07:07.834Z,1.00
2018-10-02T05:09:35.660Z,1.13
2018-10-02T05:12:03.516Z,1.23
2018-10-02T05:14:31.403Z,1.17
2018-10-02T05:16:59.313Z,1.30
2018-10-02T05:19:27.287Z,1.33
2018-10-02T05:21:55.104Z,1.00
2018-10-02T05:24:22.971Z,1.37
2018-10-02T05:26:50.878Z,1.37
2018-10-02T05:29:18.758Z,1.63
2018-10-02T05:31:46.652Z,1.33
2018-10-02T05:34:14.508Z,1.50
2018-10-02T05:36:42.349Z,2.10
2018-10-02T05:39:10.175Z,1.13
2018-10-02T05:41:38.279Z,1.43
2018-10-02T05:44:06.183Z,1.50
2018-10-02T05:46:33.996Z,1.60
2018-10-02T05:49:02.833Z,1.83
2018-10-02T05:51:30.685Z,1.80
2018-10-02T05:53:58.532Z,1.60
2018-10-02T05:56:26.392Z,2.13
2018-10-02T05:58:54.202Z,1.20
2018-10-02T06:01:22.137Z,1.23
2018-10-02T06:03:50.051Z,1.80
2018-10-02T06:06:17.833Z,1.00
2018-10-02T06:08:45.656Z,1.00
2018-10-02T06:11:13.488Z,1.83
2018-10-02T06:13:41.390Z,2.67
2018-10-02T06:16:09.197Z,1.40
2018-10-02T06:18:37.094Z,1.30
2018-10-02T06:21:05.012Z,1.20
2018-10-02T06:23:32.833Z,1.70
2018-10-02T06:26:00.671Z,1.77
2018-10-02T06:28:28.503Z,1.90
2018-10-02T06:30:56.345Z,1.47
2018-10-02T06:33:24.210Z,1.40
2018-10-02T06:35:52.045Z,1.30
2018-10-02T06:38:20.037Z,1.53
2018-10-02T06:40:47.909Z,1.70
2018-10-02T06:43:15.785Z,2.07
2018-10-02T06:45:44.671Z,1.33
2018-10-02T06:48:12.472Z,1.43
2018-10-02T06:50:40.431Z,2.10
2018-10-02T06:53:08.217Z,2.57
2018-10-02T06:55:36.065Z,2.80
2018-10-02T06:58:03.947Z,3.43
2018-10-02T07:00:31.834Z,4.27
2018-10-02T07:02:59.701Z,4.30
2018-10-02T07:05:27.566Z,4.23
2018-10-02T07:07:55.441Z,4.40
2018-10-02T07:10:23.267Z,3.80
2018-10-02T07:12:51.103Z,5.10
2018-10-02T07:15:18.967Z,5.83
2018-10-02T07:17:46.807Z,5.97
2018-10-02T07:20:14.684Z,6.83
2018-10-02T07:22:43.556Z,6.80
2018-10-02T07:25:11.418Z,6.77
2018-10-02T07:27:39.431Z,6.30
2018-10-02T07:30:50.565Z,6.87
2018-10-02T07:33:18.409Z,8.30
2018-10-02T07:35:46.208Z,7.70
2018-10-02T07:38:14.094Z,7.63
2018-10-02T07:40:41.957Z,7.13
2018-10-02T07:43:09.764Z,8.40
2018-10-02T07:45:38.636Z,7.70
2018-10-02T07:48:06.501Z,8.87
2018-10-02T07:50:34.403Z,10.93
2018-10-02T07:53:02.197Z,10.53
2018-10-02T07:55:30.088Z,9.47
2018-10-02T07:57:57.854Z,9.40
2018-10-02T08:00:25.768Z,9.47
2018-10-02T08:02:53.667Z,10.10
2018-10-02T08:05:21.622Z,10.23
2018-10-02T08:07:49.482Z,10.87
2018-10-02T08:10:17.421Z,10.70
2018-10-02T08:12:46.279Z,9.40
2018-10-02T08:15:14.160Z,10.23
2018-10-02T08:17:43.118Z,9.77
2018-10-02T08:20:10.903Z,12.20
2018-10-02T08:22:38.711Z,11.53
2018-10-02T08:25:06.603Z,11.93
2018-10-02T08:27:34.451Z,12.00
2018-10-02T08:30:02.306Z,11.93
2018-10-02T08:32:30.148Z,13.57
2018-10-02T08:34:58.011Z,15.67
2018-10-02T08:37:25.933Z,16.00
2018-10-02T08:39:53.830Z,14.43
2018-10-02T08:42:21.708Z,14.83
2018-10-02T08:44:49.549Z,14.97
2018-10-02T08:47:17.364Z,14.37
2018-10-02T08:49:45.373Z,15.03
2018-10-02T08:52:13.354Z,15.43
2018-10-02T08:54:41.292Z,16.80
2018-10-02T08:57:09.150Z,17.10
2018-10-02T08:59:37.026Z,17.87
2018-10-02T09:02:10.458Z,17.47
2018-10-02T09:04:38.921Z,18.37
2018-10-02T09:07:13.293Z,20.57
2018-10-02T09:09:41.512Z,19.20
2018-10-02T09:12:09.696Z,20.60
2018-10-02T09:14:38.119Z,22.73
2018-10-02T09:17:06.673Z,23.07
2018-10-02T09:19:34.705Z,22.93
2018-10-02T09:22:03.080Z,23.83
2018-10-02T09:24:31.571Z,23.80
2018-10-02T09:26:59.832Z,23.33
2018-10-02T09:29:27.712Z,23.83
2018-10-02T09:32:01.317Z,22.57
2018-10-02T09:34:34.691Z,19.97
2018-10-02T09:37:08.126Z,19.83
2018-10-02T09:39:41.700Z,22.17
2018-10-02T09:42:15.053Z,20.93
2018-10-02T09:44:42.902Z,20.53
2018-10-02T09:47:10.930Z,20.23
2018-10-02T09:49:38.800Z,17.90
2018-10-02T09:52:08.670Z,18.57
2018-10-02T09:54:36.502Z,13.50
2018-10-02T09:57:04.626Z,13.80
2018-10-02T09:59:32.458Z,13.17
2018-10-02T10:02:06.020Z,11.27
2018-10-02T10:04:33.867Z,9.47
2018-10-02T10:07:01.733Z,8.50
2018-10-02T10:09:29.676Z,7.30
2018-10-02T10:11:57.557Z,7.07
2018-10-02T10:14:25.382Z,5.80
2018-10-02T10:16:53.295Z,5.80
2018-10-02T10:19:21.172Z,6.60
2018-10-02T10:21:49.066Z,5.40
2018-10-02T10:24:16.888Z,5.17
2018-10-02T10:26:44.821Z,5.27
2018-10-02T10:29:12.681Z,5.70
2018-10-02T10:31:40.533Z,4.93
2018-10-02T10:34:08.412Z,5.40
2018-10-02T10:36:36.224Z,4.63
2018-10-02T10:39:06.067Z,4.90
2018-10-02T10:41:33.905Z,3.83
2018-10-02T10:44:01.715Z,3.37
2018-10-02T10:46:29.612Z,4.37
2018-10-02T10:48:57.474Z,4.92
2018-10-02T10:51:25.278Z,4.50
2018-10-02T10:53:53.119Z,4.50
2018-10-02T10:56:21.000Z,4.50
2018-10-02T10:58:48.820Z,4.93
2018-10-02T11:01:16.683Z,4.63
2018-10-02T11:03:44.499Z,3.27
2018-10-02T11:06:12.287Z,3.60
2018-10-02T11:08:40.138Z,3.00
2018-10-02T11:11:07.977Z,3.22
2018-10-02T11:13:35.795Z,3.35
2018-10-02T11:16:03.673Z,2.45
2018-10-02T11:18:40.115Z,4.50
2018-10-02T11:21:07.969Z,2.77
2018-10-02T11:23:35.838Z,2.87
2018-10-02T11:26:03.729Z,2.08
2018-10-02T11:28:32.377Z,2.77
2018-10-02T11:31:00.385Z,2.22
2018-10-02T11:33:28.241Z,1.10
2018-10-02T11:35:56.067Z,1.70
2018-10-02T11:38:23.929Z,1.25
2018-10-02T11:40:51.849Z,0.95
2018-10-02T11:43:19.733Z,9.70
2018-10-02T11:45:47.546Z,1.12
2018-10-02T11:48:15.399Z,0.70
2018-10-02T11:50:44.141Z,1.50
2018-10-02T11:53:12.015Z,1.20
2018-10-02T11:55:39.928Z,1.27
2018-10-02T11:58:07.782Z,0.85
2018-10-02T12:00:40.778Z,0.72
2018-10-02T12:03:08.498Z,0.62
2018-10-02T12:05:36.345Z,0.72
2018-10-02T12:08:04.530Z,0.80
2018-10-02T12:10:32.372Z,0.50
2018-10-02T12:13:00.270Z,0.78
2018-10-02T12:15:28.070Z,0.50
2018-10-02T12:18:36.375Z,0.50
2018-10-02T12:21:04.346Z,0.40
2018-10-02T12:23:32.216Z,0.62
2018-10-02T12:26:00.077Z,1.12
2018-10-02T12:28:27.913Z,0.70
2018-10-02T12:30:55.756Z,0.80
2018-10-02T12:33:23.595Z,0.70
2018-10-02T12:35:51.425Z,1.17
2018-10-02T12:38:19.275Z,0.70
2018-10-02T12:40:47.175Z,0.70
2018-10-02T12:43:15.040Z,0.50
2018-10-02T12:45:43.038Z,5.00
2018-10-02T12:48:10.882Z,0.57
2018-10-02T12:50:38.853Z,0.90
2018-10-02T12:53:06.810Z,0.98
2018-10-02T12:55:34.561Z,0.70
2018-10-02T12:58:02.396Z,0.68
2018-10-02T13:00:30.236Z,0.57
2018-10-02T13:02:58.065Z,1.07
2018-10-02T13:05:25.913Z,0.80
2018-10-02T13:07:54.731Z,0.90
2018-10-02T13:10:22.554Z,0.85
2018-10-02T13:12:50.432Z,0.80
2018-10-02T13:15:18.301Z,0.85
2018-10-02T13:17:46.131Z,1.10
2018-10-02T13:20:13.992Z,0.82
2018-10-02T13:22:41.800Z,0.90
2018-10-02T13:25:09.663Z,0.50
2018-10-02T13:27:37.523Z,1.00
2018-10-02T13:30:05.403Z,0.98
2018-10-02T13:32:33.269Z,0.80
2018-10-02T13:35:01.226Z,0.88
2018-10-02T13:37:29.145Z,0.70
2018-10-02T13:39:56.971Z,0.80
2018-10-02T13:42:24.841Z,0.80
2018-10-02T13:44:52.688Z,0.78
2018-10-02T13:47:20.575Z,0.70
2018-10-02T13:49:48.394Z,1.32
2018-10-02T13:52:16.196Z,0.80
2018-10-02T13:54:44.087Z,0.60
2018-10-02T13:57:11.916Z,0.72
2018-10-02T13:59:39.853Z,1.00
2018-10-02T14:02:07.705Z,1.32
2018-10-02T14:04:35.541Z,1.10
2018-10-02T14:07:03.375Z,1.30
2018-10-02T14:09:31.273Z,0.85
2018-10-02T14:11:59.108Z,1.27
2018-10-02T14:14:27.012Z,1.20
2018-10-02T14:16:54.838Z,1.07
2018-10-02T14:19:22.693Z,1.20
2018-10-02T14:21:50.498Z,1.25
2018-10-02T14:24:18.361Z,1.10
2018-10-02T14:26:47.214Z,1.40
2018-10-02T14:29:15.065Z,1.05
2018-10-02T14:31:42.964Z,1.60
2018-10-02T14:34:10.818Z,0.80
2018-10-02T14:36:38.760Z,1.02
2018-10-02T14:39:07.179Z,0.65
2018-10-02T14:41:35.249Z,0.70
2018-10-02T14:44:03.151Z,0.90
2018-10-02T14:46:31.000Z,9.80
2018-10-02T14:48:58.816Z,0.72
2018-10-02T14:51:26.628Z,0.65
2018-10-02T14:53:54.437Z,1.30
2018-10-02T14:56:23.186Z,0.98
2018-10-02T14:58:51.258Z,1.05
2018-10-02T15:01:19.198Z,1.10
2018-10-02T15:03:47.064Z,1.00
2018-10-02T15:06:14.887Z,1.10
2018-10-02T15:08:42.713Z,1.32
2018-10-02T15:11:10.585Z,1.75
2018-10-02T15:13:38.437Z,1.10
2018-10-02T15:16:06.394Z,1.02
2018-10-02T15:18:34.343Z,1.20
2018-10-02T15:21:02.183Z,0.80
2018-10-02T15:23:31.494Z,1.02
2018-10-02T15:25:59.380Z,1.10
2018-10-02T15:28:27.446Z,1.52
2018-10-02T15:30:55.317Z,1.27
2018-10-02T15:33:23.389Z,11.33
2018-10-02T15:35:51.281Z,0.80
2018-10-02T15:38:19.336Z,0.82
2018-10-02T15:40:47.252Z,1.17
2018-10-02T15:43:15.245Z,1.27
2018-10-02T15:45:43.184Z,0.82
2018-10-02T15:48:11.134Z,1.10
2018-10-02T15:50:39.031Z,1.27
2018-10-02T15:53:08.079Z,1.32
2018-10-02T15:55:35.946Z,1.75
2018-10-02T15:58:03.935Z,1.65
2018-10-02T16:00:32.189Z,1.05
2018-10-02T16:03:00.173Z,1.57
2018-10-02T16:05:28.011Z,1.20
2018-10-02T16:07:55.947Z,1.00
2018-10-02T16:10:23.816Z,1.45
2018-10-02T16:12:53.751Z,1.07
2018-10-02T16:15:21.586Z,1.27
2018-10-02T16:17:49.533Z,1.05
2018-10-02T16:20:17.711Z,1.15
2018-10-02T16:22:45.546Z,1.32
2018-10-02T16:25:13.613Z,1.40
2018-10-02T16:27:41.604Z,1.02
2018-10-02T16:30:09.521Z,3.60
2018-10-02T16:32:37.382Z,1.42
2018-10-02T16:35:05.521Z,1.50
2018-10-02T16:37:33.338Z,1.47
2018-10-02T16:40:01.496Z,2.10
2018-10-02T16:42:29.399Z,2.52
2018-10-02T16:44:59.453Z,1.90
2018-10-02T16:47:27.294Z,1.50
2018-10-02T16:49:55.196Z,1.77
2018-10-02T16:52:23.139Z,1.92
2018-10-02T16:54:51.008Z,2.10
2018-10-02T16:57:19.950Z,1.95
2018-10-02T16:59:47.782Z,2.30
2018-10-02T17:02:15.767Z,1.82
2018-10-02T17:04:43.593Z,1.80
2018-10-02T17:07:11.630Z,1.63
2018-10-02T17:09:39.425Z,1.70
2018-10-02T17:12:08.396Z,1.85
2018-10-02T17:14:36.258Z,1.57
2018-10-02T17:17:04.446Z,2.47
2018-10-02T17:19:32.466Z,8.90
2018-10-02T17:22:00.328Z,16.48
2018-10-02T17:24:28.319Z,2.20
2018-10-02T17:26:56.204Z,2.40
2018-10-02T17:29:24.248Z,1.55
2018-10-02T17:31:52.089Z,2.27
2018-10-02T17:34:19.952Z,2.33
2018-10-02T17:36:47.817Z,2.10
2018-10-02T17:39:15.682Z,2.00
2018-10-02T17:41:43.537Z,2.37
2018-10-02T17:44:11.461Z,2.67
2018-10-02T17:46:39.301Z,2.70
2018-10-02T17:49:07.206Z,3.27
2018-10-02T17:51:34.975Z,3.00
2018-10-02T17:54:03.231Z,3.50
2018-10-02T17:56:31.102Z,2.77
2018-10-02T17:58:59.150Z,2.87
2018-10-02T18:01:27.010Z,2.17
2018-10-02T18:03:54.874Z,2.03
2018-10-02T18:06:22.689Z,2.53
2018-10-02T18:08:50.739Z,5.70
2018-10-02T18:11:18.682Z,4.07
2018-10-02T18:13:46.706Z,4.00
2018-10-02T18:16:14.661Z,2.90
2018-10-02T18:18:43.759Z,2.87
2018-10-02T18:21:11.665Z,3.33
2018-10-02T18:23:39.546Z,3.20
2018-10-02T18:26:07.493Z,3.23
2018-10-02T18:28:35.440Z,3.83
2018-10-02T18:31:04.417Z,3.00
2018-10-02T18:33:32.270Z,4.00
2018-10-02T18:36:00.222Z,4.03
2018-10-02T18:38:28.054Z,4.22
2018-10-02T18:40:57.633Z,4.33
2018-10-02T18:43:25.500Z,4.47
2018-10-02T18:45:53.536Z,4.93
2018-10-02T18:48:21.423Z,5.30
2018-10-02T18:50:49.273Z,5.40
2018-10-02T18:53:17.245Z,6.53
2018-10-02T18:55:45.133Z,6.23
2018-10-02T18:58:13.186Z,5.77
2018-10-02T19:00:41.108Z,6.83
2018-10-02T19:03:09.007Z,7.27
2018-10-02T19:05:36.857Z,6.13
2018-10-02T19:08:12.428Z,6.70
2018-10-02T19:10:40.311Z,6.87
2018-10-02T19:13:09.402Z,6.90
2018-10-02T19:15:42.910Z,6.33
2018-10-02T19:18:11.967Z,7.13
2018-10-02T19:20:45.527Z,6.13
2018-10-02T19:23:13.437Z,6.77
2018-10-02T19:25:46.926Z,8.00
2018-10-02T19:28:14.783Z,8.37
2018-10-02T19:30:49.437Z,7.70
2018-10-02T19:33:17.362Z,8.53
2018-10-02T19:35:45.404Z,9.10
2018-10-02T19:38:18.959Z,8.93
2018-10-02T19:40:47.021Z,8.57
2018-10-02T19:43:15.089Z,8.30
2018-10-02T19:45:48.439Z,8.17
2018-10-02T19:48:16.260Z,8.70
2018-10-02T19:50:44.366Z,7.60
2018-10-02T19:53:12.285Z,7.90
2018-10-02T19:55:40.216Z,8.30
2018-10-02T19:58:08.113Z,8.20
2018-10-02T20:00:36.088Z,6.17
2018-10-02T20:03:04.006Z,7.43
2018-10-02T20:05:31.997Z,6.83
2018-10-02T20:07:59.813Z,6.53
2018-10-02T20:10:27.633Z,11.00
2018-10-02T20:12:55.605Z,8.03
2018-10-02T20:15:23.588Z,15.23
2018-10-02T20:17:51.765Z,10.37
2018-10-02T20:20:19.691Z,6.77
2018-10-02T20:22:47.667Z,9.40
2018-10-02T20:25:15.546Z,9.47
2018-10-02T20:27:43.610Z,13.13
2018-10-02T20:30:11.445Z,8.37
2018-10-02T20:32:39.557Z,7.63
2018-10-02T20:35:07.408Z,4.27
2018-10-02T20:37:35.398Z,3.73
2018-10-02T20:40:03.387Z,1.87
2018-10-02T20:42:31.242Z,1.33
2018-10-02T20:44:59.209Z,1.97
2018-10-02T20:47:27.096Z,1.53
2018-10-02T20:49:55.980Z,2.97
2018-10-02T20:52:23.857Z,1.40
2018-10-02T20:54:52.819Z,1.43
2018-10-02T20:57:20.686Z,13.85
2018-10-02T20:59:48.634Z,4.03
2018-10-02T21:02:16.506Z,1.70
2018-10-02T21:04:44.568Z,2.00
2018-10-02T21:07:12.469Z,0.80
2018-10-02T21:09:40.271Z,0.93
2018-10-02T21:12:08.470Z,0.80
2018-10-02T21:14:36.316Z,0.97
2018-10-02T21:17:04.251Z,0.90
2018-10-02T21:19:32.083Z,1.13
2018-10-02T21:22:00.145Z,1.10
2018-10-02T21:24:28.004Z,1.20
2018-10-02T21:26:55.949Z,0.77
2018-10-02T21:29:23.661Z,1.10
2018-10-02T21:31:55.656Z,0.77
2018-10-02T21:34:23.492Z,1.40
2018-10-02T21:36:51.486Z,1.00
2018-10-02T21:39:33.326Z,1.27
2018-10-02T21:42:01.229Z,0.80
2018-10-02T21:44:29.263Z,0.90
2018-10-02T21:46:57.221Z,1.23
2018-10-02T21:49:25.203Z,1.37
2018-10-02T21:51:53.061Z,0.80
2018-10-02T21:54:21.139Z,1.27
2018-10-02T21:56:49.007Z,0.90
2018-10-02T21:59:17.044Z,0.80
2018-10-02T22:01:44.913Z,1.23
2018-10-02T22:04:14.795Z,0.70
2018-10-02T22:06:42.582Z,1.00
2018-10-02T22:09:10.682Z,0.83
2018-10-02T22:11:38.548Z,1.00
2018-10-02T22:14:06.596Z,0.90
2018-10-02T22:16:34.402Z,0.80
2018-10-02T22:19:02.313Z,0.83
2018-10-02T22:21:30.235Z,1.60
2018-10-02T22:23:58.308Z,0.83
2018-10-02T22:26:26.082Z,1.03
2018-10-02T22:28:54.052Z,1.40
2018-10-02T22:31:21.899Z,1.60
2018-10-02T22:33:49.919Z,1.13
2018-10-02T22:36:17.736Z,1.03
2018-10-02T22:38:50.641Z,1.60
2018-10-02T22:41:18.474Z,1.30
2018-10-02T22:43:49.493Z,1.30
2018-10-02T22:46:17.353Z,0.90
2018-10-02T22:48:45.246Z,1.30
2018-10-02T22:51:13.080Z,1.73
2018-10-02T22:53:40.945Z,1.37
2018-10-02T22:56:08.755Z,2.43
2018-10-02T22:58:36.677Z,1.70
2018-10-02T23:01:04.554Z,1.70
2018-10-02T23:03:32.617Z,1.93
2018-10-02T23:06:00.444Z,1.97
2018-10-02T23:08:28.347Z,2.00
2018-10-02T23:10:56.185Z,3.07
2018-10-02T23:13:24.042Z,2.50
2018-10-02T23:15:51.923Z,2.47
2018-10-02T23:18:19.746Z,2.20
2018-10-02T23:20:47.662Z,2.97
2018-10-02T23:23:15.468Z,2.83
2018-10-02T23:25:43.506Z,3.33
2018-10-02T23:28:11.340Z,3.27
2018-10-02T23:30:40.248Z,3.20
2018-10-02T23:33:08.109Z,3.00
2018-10-02T23:35:35.973Z,2.97
2018-10-02T23:38:03.861Z,3.03
2018-10-02T23:40:31.682Z,3.10
2018-10-02T23:42:59.562Z,2.60
2018-10-02T23:45:27.420Z,3.30
2018-10-02T23:47:55.287Z,2.60
2018-10-02T23:50:23.089Z,3.37
2018-10-02T23:52:51.025Z,3.27
2018-10-02T23:55:18.831Z,3.63
2018-10-02T23:57:46.771Z,3.37
